createdAt,value
2023-01-20T00:00:35.271Z,33.57
2023-01-20T00:03:02.058Z,40.33
2023-01-20T00:05:28.532Z,43.23
2023-01-20T00:07:55.325Z,44.40
2023-01-20T00:10:21.830Z,37.80
2023-01-20T00:12:48.312Z,35.53
2023-01-20T00:15:15.248Z,39.13
2023-01-20T00:17:41.981Z,41.27
2023-01-20T00:20:09.432Z,43.77
2023-01-20T00:22:42.017Z,42.07
2023-01-20T00:25:11.880Z,45.23
2023-01-20T00:27:38.757Z,42.93
2023-01-20T00:30:05.939Z,49.20
2023-01-20T00:32:39.675Z,39.50
2023-01-20T00:35:07.322Z,41.87
2023-01-20T00:37:33.797Z,50.03
2023-01-20T00:40:00.599Z,44.97
2023-01-20T00:42:27.101Z,50.83
2023-01-20T00:44:53.611Z,42.20
2023-01-20T00:47:20.978Z,51.87
2023-01-20T00:49:47.929Z,44.43
2023-01-20T00:52:15.149Z,47.00
2023-01-20T00:54:41.646Z,51.83
2023-01-20T00:57:08.150Z,43.83
2023-01-20T00:59:34.651Z,44.83
2023-01-20T01:02:02.059Z,46.83
2023-01-20T01:04:28.661Z,49.70
2023-01-20T01:06:55.145Z,35.77
2023-01-20T01:09:21.869Z,43.90
2023-01-20T01:11:48.876Z,43.87
2023-01-20T01:14:16.431Z,41.97
2023-01-20T01:16:43.255Z,43.00
2023-01-20T01:19:09.827Z,38.00
2023-01-20T01:21:36.336Z,42.40
2023-01-20T01:24:02.896Z,42.73
2023-01-20T01:26:30.039Z,41.70
2023-01-20T01:28:56.566Z,44.70
2023-01-20T01:31:23.187Z,44.73
2023-01-20T01:33:50.089Z,41.40
2023-01-20T01:36:17.338Z,41.00
2023-01-20T01:38:44.651Z,48.67
2023-01-20T01:41:18.243Z,45.23
2023-01-20T01:44:09.294Z,42.30
2023-01-20T01:46:36.439Z,47.00
2023-01-20T01:49:15.790Z,40.23
2023-01-20T01:51:47.611Z,38.60
2023-01-20T01:54:18.701Z,50.60
2023-01-20T01:56:47.426Z,38.50
2023-01-20T01:59:15.231Z,46.47
2023-01-20T02:01:47.003Z,42.17
2023-01-20T02:04:15.978Z,39.77
2023-01-20T02:06:49.694Z,47.90
2023-01-20T02:09:16.775Z,42.20
2023-01-20T02:11:48.610Z,44.07
2023-01-20T02:14:20.328Z,41.27
2023-01-20T02:17:28.504Z,45.83
2023-01-20T02:20:02.862Z,44.20
2023-01-20T02:23:07.244Z,41.87
2023-01-20T02:25:42.102Z,51.80
2023-01-20T02:28:23.414Z,39.87
2023-01-20T02:31:13.975Z,37.97
2023-01-20T02:34:03.034Z,41.73
2023-01-20T02:36:43.368Z,42.07
2023-01-20T02:39:26.960Z,52.13
2023-01-20T02:42:01.038Z,48.47
2023-01-20T02:44:38.379Z,41.67
2023-01-20T02:47:19.945Z,44.90
2023-01-20T02:49:55.367Z,45.57
2023-01-20T02:52:28.101Z,42.63
2023-01-20T02:54:59.152Z,48.40
2023-01-20T02:57:32.822Z,40.23
2023-01-20T03:00:07.752Z,45.77
2023-01-20T03:02:37.592Z,48.97
2023-01-20T03:05:17.459Z,38.77
2023-01-20T03:07:45.801Z,37.70
2023-01-20T03:10:18.793Z,39.10
2023-01-20T03:12:56.605Z,39.97
2023-01-20T03:15:32.453Z,41.70
2023-01-20T03:17:59.032Z,44.57
2023-01-20T03:20:25.577Z,39.20
2023-01-20T03:22:52.108Z,36.83
2023-01-20T03:25:20.285Z,36.47
2023-01-20T03:27:47.226Z,36.17
2023-01-20T03:30:17.877Z,36.40
2023-01-20T03:32:47.826Z,41.17
2023-01-20T03:35:16.644Z,40.27
2023-01-20T03:37:44.056Z,39.67
2023-01-20T03:40:12.154Z,42.40
2023-01-20T03:42:45.604Z,37.97
2023-01-20T03:45:30.596Z,34.47
2023-01-20T03:48:06.501Z,37.00
2023-01-20T03:50:51.358Z,38.40
2023-01-20T03:53:37.365Z,38.70
2023-01-20T03:56:03.897Z,42.33
2023-01-20T03:58:36.219Z,41.20
2023-01-20T04:01:08.879Z,38.83
2023-01-20T04:03:48.870Z,36.93
2023-01-20T04:06:17.815Z,37.97
2023-01-20T04:08:51.202Z,38.83
2023-01-20T04:11:18.434Z,38.00
2023-01-20T04:13:44.952Z,38.80
2023-01-20T04:16:17.759Z,32.33
2023-01-20T04:18:47.722Z,34.63
2023-01-20T04:21:22.346Z,35.70
2023-01-20T04:23:55.177Z,35.90
2023-01-20T04:26:21.688Z,35.57
2023-01-20T04:28:48.360Z,35.57
2023-01-20T04:31:29.264Z,34.97
2023-01-20T04:33:57.125Z,37.93
2023-01-20T04:36:23.682Z,36.60
2023-01-20T04:38:50.196Z,37.37
2023-01-20T04:41:16.686Z,37.47
2023-01-20T04:43:45.168Z,35.30
2023-01-20T04:46:15.817Z,32.97
2023-01-20T04:48:44.874Z,34.23
2023-01-20T04:51:11.887Z,37.87
2023-01-20T04:53:38.900Z,34.23
2023-01-20T04:56:10.788Z,35.40
2023-01-20T04:58:37.686Z,40.73
2023-01-20T05:01:04.227Z,38.43
2023-01-20T05:03:30.768Z,35.77
2023-01-20T05:05:57.263Z,37.73
2023-01-20T05:08:23.824Z,34.60
2023-01-20T05:10:50.322Z,35.30
2023-01-20T05:13:17.205Z,35.93
2023-01-20T05:15:44.532Z,41.63
2023-01-20T05:18:11.248Z,33.33
2023-01-20T05:20:37.970Z,35.47
2023-01-20T05:23:04.746Z,31.97
2023-01-20T05:25:31.262Z,33.50
2023-01-20T05:27:59.106Z,33.87
2023-01-20T05:30:25.648Z,37.63
2023-01-20T05:32:52.254Z,36.50
2023-01-20T05:35:19.446Z,33.60
2023-01-20T05:37:46.135Z,37.23
2023-01-20T05:40:13.532Z,30.07
2023-01-20T05:42:40.099Z,45.13
2023-01-20T05:45:07.218Z,34.40
2023-01-20T05:47:33.704Z,34.60
2023-01-20T05:50:00.209Z,32.07
2023-01-20T05:52:26.726Z,37.70
2023-01-20T05:54:53.250Z,31.27
2023-01-20T05:57:19.765Z,30.63
2023-01-20T05:59:47.617Z,36.80
2023-01-20T06:02:18.553Z,32.43
2023-01-20T06:04:49.069Z,38.53
2023-01-20T06:07:15.970Z,35.27
2023-01-20T06:09:42.758Z,32.43
2023-01-20T06:12:09.308Z,34.67
2023-01-20T06:14:35.844Z,45.10
2023-01-20T06:17:02.375Z,35.00
2023-01-20T06:19:29.012Z,30.47
2023-01-20T06:21:55.699Z,32.37
2023-01-20T06:24:22.216Z,39.57
2023-01-20T06:26:50.890Z,37.87
2023-01-20T06:29:17.802Z,35.60
2023-01-20T06:31:45.431Z,33.20
2023-01-20T06:34:13.015Z,33.27
2023-01-20T06:36:40.047Z,29.87
2023-01-20T06:39:06.691Z,33.30
2023-01-20T06:41:33.521Z,38.63
2023-01-20T06:44:00.074Z,28.30
2023-01-20T06:46:27.086Z,36.87
2023-01-20T06:49:00.106Z,32.13
2023-01-20T06:51:28.955Z,39.60
2023-01-20T06:53:55.892Z,30.07
2023-01-20T06:56:22.664Z,24.97
2023-01-20T06:58:49.533Z,28.67
2023-01-20T07:01:21.727Z,22.00
2023-01-20T07:03:48.783Z,24.47
2023-01-20T07:06:30.086Z,23.60
2023-01-20T07:08:58.851Z,23.30
2023-01-20T07:11:25.795Z,22.40
2023-01-20T07:13:52.744Z,25.63
2023-01-20T07:16:19.365Z,25.87
2023-01-20T07:18:51.693Z,27.73
2023-01-20T07:21:18.901Z,24.40
2023-01-20T07:23:45.823Z,23.03
2023-01-20T07:26:19.319Z,24.97
2023-01-20T07:28:46.367Z,21.47
2023-01-20T07:31:22.552Z,24.13
2023-01-20T07:33:50.302Z,19.67
2023-01-20T07:36:18.518Z,20.53
2023-01-20T07:38:49.357Z,22.77
2023-01-20T07:41:18.096Z,18.03
2023-01-20T07:43:45.553Z,21.20
2023-01-20T07:46:12.794Z,20.77
2023-01-20T07:48:39.666Z,24.13
2023-01-20T07:51:09.062Z,23.63
2023-01-20T07:53:47.410Z,19.47
2023-01-20T07:56:15.631Z,21.30
2023-01-20T07:58:45.132Z,22.20
2023-01-20T08:01:17.979Z,28.53
2023-01-20T08:03:45.082Z,24.43
2023-01-20T08:06:13.815Z,27.83
2023-01-20T08:08:40.313Z,20.13
2023-01-20T08:11:08.249Z,21.07
2023-01-20T08:13:35.270Z,22.67
2023-01-20T08:16:05.271Z,21.90
2023-01-20T08:18:32.821Z,19.67
2023-01-20T08:20:59.852Z,16.40
2023-01-20T08:23:26.542Z,16.27
2023-01-20T08:26:05.584Z,16.80
2023-01-20T08:28:34.954Z,15.20
2023-01-20T08:31:16.506Z,18.50
2023-01-20T08:33:44.278Z,15.27
2023-01-20T08:36:23.864Z,15.50
2023-01-20T08:38:51.191Z,18.50
2023-01-20T08:41:20.903Z,16.73
2023-01-20T08:43:47.818Z,17.10
2023-01-20T08:46:16.444Z,26.70
2023-01-20T08:48:43.759Z,18.73
2023-01-20T08:51:16.324Z,21.33
2023-01-20T08:53:43.356Z,15.13
2023-01-20T08:56:11.337Z,18.20
2023-01-20T08:58:38.138Z,24.37
2023-01-20T09:01:09.497Z,17.97
2023-01-20T09:03:36.512Z,22.30
2023-01-20T09:06:04.282Z,16.43
2023-01-20T09:08:30.844Z,25.80
2023-01-20T09:11:03.153Z,32.10
2023-01-20T09:13:29.678Z,31.50
2023-01-20T09:15:56.419Z,31.90
2023-01-20T09:18:23.188Z,25.00
2023-01-20T09:20:49.689Z,26.70
2023-01-20T09:23:16.231Z,33.47
2023-01-20T09:25:42.758Z,23.00
2023-01-20T09:28:09.667Z,26.10
2023-01-20T09:30:36.209Z,21.20
2023-01-20T09:33:03.256Z,27.00
2023-01-20T09:35:29.807Z,26.73
2023-01-20T09:38:14.835Z,23.77
2023-01-20T09:41:28.481Z,28.17
2023-01-20T09:44:13.761Z,22.10
2023-01-20T09:47:14.925Z,25.57
2023-01-20T09:50:29.393Z,25.67
2023-01-20T09:53:25.604Z,20.33
2023-01-20T09:56:02.523Z,22.17
2023-01-20T09:58:31.727Z,21.47
2023-01-20T10:01:20.205Z,19.30
2023-01-20T10:03:59.879Z,21.67
2023-01-20T10:06:34.756Z,16.57
2023-01-20T10:09:06.681Z,24.10
2023-01-20T10:11:40.045Z,24.23
2023-01-20T10:14:23.843Z,23.70
2023-01-20T10:16:53.961Z,31.00
2023-01-20T10:19:31.503Z,25.37
2023-01-20T10:22:06.988Z,27.20
2023-01-20T10:24:45.824Z,24.93
2023-01-20T10:27:12.368Z,29.60
2023-01-20T10:29:44.492Z,26.43
2023-01-20T10:32:27.542Z,25.30
2023-01-20T10:34:56.802Z,20.43
2023-01-20T10:37:23.922Z,27.80
2023-01-20T10:39:58.368Z,22.93
2023-01-20T10:42:28.237Z,23.87
2023-01-20T10:44:55.277Z,31.20
2023-01-20T10:47:37.236Z,26.10
2023-01-20T10:50:30.357Z,27.00
2023-01-20T10:53:15.829Z,23.00
2023-01-20T10:55:48.894Z,21.03
2023-01-20T10:58:24.123Z,26.10
2023-01-20T11:00:51.111Z,21.10
2023-01-20T11:03:22.853Z,23.30
2023-01-20T11:05:51.733Z,29.17
2023-01-20T11:08:21.392Z,28.73
2023-01-20T11:10:51.783Z,26.43
2023-01-20T11:13:18.306Z,25.67
2023-01-20T11:15:47.910Z,26.73
2023-01-20T11:18:14.432Z,32.40
2023-01-20T11:20:52.160Z,24.93
2023-01-20T11:23:40.639Z,28.00
2023-01-20T11:26:17.909Z,29.37
2023-01-20T11:28:49.391Z,32.50
2023-01-20T11:31:16.976Z,28.20
2023-01-20T11:34:02.675Z,33.00
2023-01-20T11:36:29.964Z,36.23
2023-01-20T11:38:57.553Z,25.97
2023-01-20T11:41:29.523Z,28.10
2023-01-20T11:43:58.254Z,27.47
2023-01-20T11:46:32.071Z,26.13
2023-01-20T11:49:17.744Z,28.37
2023-01-20T11:51:47.555Z,32.53
2023-01-20T11:54:28.929Z,35.37
2023-01-20T11:57:00.347Z,25.50
2023-01-20T11:59:31.302Z,34.93
2023-01-20T12:02:04.930Z,30.60
2023-01-20T12:04:56.850Z,29.70
2023-01-20T12:07:29.259Z,28.93
2023-01-20T12:10:03.879Z,34.90
2023-01-20T12:12:39.817Z,31.50
2023-01-20T12:15:15.690Z,41.73
2023-01-20T12:17:51.658Z,25.73
2023-01-20T12:20:27.009Z,29.67
2023-01-20T12:23:21.522Z,27.57
2023-01-20T12:26:00.516Z,28.87
2023-01-20T12:28:53.839Z,37.00
2023-01-20T12:31:23.835Z,30.07
2023-01-20T12:33:59.579Z,32.70
2023-01-20T12:36:26.306Z,35.40
2023-01-20T12:39:01.608Z,31.30
2023-01-20T12:41:48.734Z,29.30
2023-01-20T12:44:27.734Z,22.57
2023-01-20T12:47:19.480Z,32.47
2023-01-20T12:49:57.898Z,29.90
2023-01-20T12:52:39.634Z,26.77
2023-01-20T12:55:28.695Z,25.40
2023-01-20T12:58:08.214Z,31.20
2023-01-20T13:01:11.399Z,29.50
2023-01-20T13:03:50.244Z,31.13
2023-01-20T13:06:55.740Z,30.10
2023-01-20T13:09:37.719Z,27.97
2023-01-20T13:12:34.969Z,33.17
2023-01-20T13:15:13.711Z,27.20
2023-01-20T13:18:15.152Z,23.83
2023-01-20T13:20:45.458Z,23.53
2023-01-20T13:23:20.330Z,23.07
2023-01-20T13:25:47.564Z,25.40
2023-01-20T13:28:26.641Z,28.30
2023-01-20T13:30:58.155Z,30.20
2023-01-20T13:33:35.066Z,34.17
2023-01-20T13:36:20.480Z,38.57
2023-01-20T13:38:49.006Z,33.17
2023-01-20T13:41:48.307Z,33.40
2023-01-20T13:44:37.785Z,35.60
2023-01-20T13:47:08.329Z,33.57
2023-01-20T13:49:43.940Z,30.73
2023-01-20T13:52:11.898Z,34.53
2023-01-20T13:54:43.545Z,31.70
2023-01-20T13:57:27.908Z,47.40
2023-01-20T13:59:55.843Z,29.93
2023-01-20T14:02:27.828Z,27.43
2023-01-20T14:04:56.197Z,40.73
2023-01-20T14:07:31.072Z,39.33
2023-01-20T14:09:59.701Z,29.67
2023-01-20T14:12:26.994Z,32.37
2023-01-20T14:14:54.422Z,27.40
2023-01-20T14:17:24.329Z,44.47
2023-01-20T14:19:53.508Z,45.00
2023-01-20T14:22:28.239Z,35.17
2023-01-20T14:25:00.664Z,31.90
2023-01-20T14:27:37.671Z,27.30
2023-01-20T14:30:23.363Z,30.53
2023-01-20T14:32:51.202Z,27.77
2023-01-20T14:35:27.915Z,29.53
2023-01-20T14:37:54.862Z,27.63
2023-01-20T14:40:34.737Z,35.33
2023-01-20T14:43:16.931Z,29.03
2023-01-20T14:45:46.359Z,27.03
2023-01-20T14:48:24.796Z,24.57
2023-01-20T14:51:02.595Z,26.93
2023-01-20T14:53:29.199Z,29.80
2023-01-20T14:56:07.939Z,34.20
2023-01-20T14:58:36.090Z,28.20
2023-01-20T15:01:04.869Z,31.40
2023-01-20T15:03:31.660Z,27.13
2023-01-20T15:06:16.136Z,29.50
2023-01-20T15:09:05.155Z,34.47
2023-01-20T15:11:33.413Z,29.40
2023-01-20T15:14:05.039Z,32.33
2023-01-20T15:16:47.208Z,35.07
2023-01-20T15:19:16.866Z,30.87
2023-01-20T15:21:58.351Z,30.10
2023-01-20T15:24:32.433Z,30.73
2023-01-20T15:27:00.857Z,34.97
2023-01-20T15:29:30.699Z,34.13
2023-01-20T15:31:59.360Z,30.40
2023-01-20T15:34:27.420Z,34.80
2023-01-20T15:36:55.355Z,30.50
2023-01-20T15:39:29.051Z,29.67
2023-01-20T15:41:59.326Z,27.03
2023-01-20T15:44:26.329Z,30.47
2023-01-20T15:46:56.979Z,33.97
2023-01-20T15:49:25.427Z,36.67
2023-01-20T15:51:52.730Z,31.03
2023-01-20T15:54:19.692Z,29.37
2023-01-20T15:56:46.708Z,29.80
2023-01-20T15:59:15.532Z,29.67
2023-01-20T16:01:42.454Z,34.30
2023-01-20T16:04:09.977Z,27.60
2023-01-20T16:06:37.397Z,33.57
2023-01-20T16:09:16.143Z,36.63
2023-01-20T16:11:42.855Z,29.30
2023-01-20T16:14:09.395Z,35.70
2023-01-20T16:16:35.995Z,30.00
2023-01-20T16:19:02.580Z,31.87
2023-01-20T16:21:29.078Z,40.50
2023-01-20T16:23:55.604Z,35.00
2023-01-20T16:26:27.330Z,29.37
2023-01-20T16:28:56.075Z,30.77
2023-01-20T16:31:24.252Z,32.23
2023-01-20T16:33:52.707Z,31.57
2023-01-20T16:36:21.357Z,27.47
2023-01-20T16:38:48.800Z,31.70
2023-01-20T16:41:19.891Z,28.57
2023-01-20T16:43:46.518Z,34.33
2023-01-20T16:46:17.931Z,31.00
2023-01-20T16:48:44.989Z,29.53
2023-01-20T16:51:17.478Z,31.07
2023-01-20T16:53:44.409Z,28.17
2023-01-20T16:56:16.857Z,30.43
2023-01-20T16:58:43.539Z,30.80
2023-01-20T17:01:12.878Z,32.30
2023-01-20T17:03:40.945Z,31.47
2023-01-20T17:06:22.294Z,29.27
2023-01-20T17:08:51.642Z,34.47
2023-01-20T17:11:21.599Z,33.47
2023-01-20T17:13:48.852Z,49.60
2023-01-20T17:16:16.221Z,28.73
2023-01-20T17:18:45.610Z,32.90
2023-01-20T17:21:13.626Z,35.33
2023-01-20T17:23:41.128Z,46.73
2023-01-20T17:26:09.013Z,38.13
2023-01-20T17:28:35.711Z,33.03
2023-01-20T17:31:04.209Z,38.17
2023-01-20T17:33:31.171Z,29.13
2023-01-20T17:35:59.667Z,27.47
2023-01-20T17:38:28.121Z,32.70
2023-01-20T17:40:59.773Z,33.57
2023-01-20T17:43:26.259Z,36.83
2023-01-20T17:45:52.785Z,34.57
2023-01-20T17:48:19.308Z,49.60
2023-01-20T17:50:45.828Z,53.07
2023-01-20T17:53:12.882Z,43.03
2023-01-20T17:55:40.102Z,47.47
2023-01-20T17:58:06.634Z,39.73
2023-01-20T18:00:33.146Z,33.73
2023-01-20T18:03:00.228Z,39.90
2023-01-20T18:05:27.676Z,32.83
2023-01-20T18:07:54.221Z,31.70
2023-01-20T18:10:20.728Z,32.13
2023-01-20T18:12:47.217Z,29.87
2023-01-20T18:15:14.240Z,31.30
2023-01-20T18:17:43.497Z,35.50
2023-01-20T18:20:11.081Z,36.00
2023-01-20T18:22:37.678Z,34.67
2023-01-20T18:25:04.913Z,30.57
2023-01-20T18:27:31.414Z,33.00
2023-01-20T18:29:57.937Z,35.23
2023-01-20T18:32:24.728Z,34.20
2023-01-20T18:34:51.212Z,34.23
2023-01-20T18:37:17.688Z,33.73
2023-01-20T18:39:45.499Z,34.30
2023-01-20T18:42:12.025Z,31.40
2023-01-20T18:44:38.515Z,38.73
2023-01-20T18:47:05.076Z,34.80
2023-01-20T18:49:31.850Z,36.30
2023-01-20T18:51:58.387Z,36.10
2023-01-20T18:54:25.828Z,34.23
2023-01-20T18:56:52.728Z,36.07
2023-01-20T18:59:19.574Z,27.27
2023-01-20T19:01:46.133Z,46.97
2023-01-20T19:04:13.495Z,34.70
2023-01-20T19:06:42.249Z,30.43
2023-01-20T19:09:09.652Z,34.10
2023-01-20T19:11:42.204Z,35.40
2023-01-20T19:14:11.550Z,36.30
2023-01-20T19:16:42.095Z,32.50
2023-01-20T19:19:10.662Z,34.77
2023-01-20T19:21:38.869Z,35.47
2023-01-20T19:24:07.776Z,33.00
2023-01-20T19:26:36.527Z,34.47
2023-01-20T19:29:06.416Z,42.83
2023-01-20T19:31:35.857Z,29.63
2023-01-20T19:34:02.716Z,33.00
2023-01-20T19:36:29.701Z,31.23
2023-01-20T19:38:56.385Z,29.77
2023-01-20T19:41:28.238Z,35.50
2023-01-20T19:43:57.248Z,35.23
2023-01-20T19:46:26.312Z,26.43
2023-01-20T19:48:54.490Z,33.70
2023-01-20T19:51:21.490Z,28.20
2023-01-20T19:53:50.135Z,25.67
2023-01-20T19:56:18.278Z,31.30
2023-01-20T19:58:45.964Z,30.80
2023-01-20T20:01:22.569Z,32.40
2023-01-20T20:03:53.945Z,22.90
2023-01-20T20:06:30.260Z,29.20
2023-01-20T20:09:03.151Z,26.13
2023-01-20T20:11:30.534Z,31.73
2023-01-20T20:13:58.576Z,25.47
2023-01-20T20:16:26.854Z,23.33
2023-01-20T20:18:57.126Z,27.80
2023-01-20T20:21:24.566Z,29.97
2023-01-20T20:24:01.354Z,23.37
2023-01-20T20:26:31.454Z,28.80
2023-01-20T20:28:59.416Z,26.67
2023-01-20T20:31:30.935Z,27.70
2023-01-20T20:33:58.937Z,24.90
2023-01-20T20:36:28.417Z,24.47
2023-01-20T20:38:55.766Z,24.67
2023-01-20T20:41:22.348Z,22.10
2023-01-20T20:43:48.848Z,24.73
2023-01-20T20:46:16.241Z,18.23
2023-01-20T20:48:43.253Z,26.70
2023-01-20T20:51:13.401Z,20.87
2023-01-20T20:53:40.888Z,21.07
2023-01-20T20:56:15.312Z,26.27
2023-01-20T20:58:59.793Z,18.13
2023-01-20T21:01:28.487Z,25.80
2023-01-20T21:03:57.485Z,22.30
2023-01-20T21:06:24.322Z,20.80
2023-01-20T21:08:51.283Z,27.80
2023-01-20T21:11:19.988Z,27.27
2023-01-20T21:13:49.012Z,26.63
2023-01-20T21:16:17.034Z,23.50
2023-01-20T21:18:43.567Z,29.07
2023-01-20T21:21:14.483Z,37.73
2023-01-20T21:23:41.695Z,30.80
2023-01-20T21:26:12.004Z,30.30
2023-01-20T21:28:39.878Z,27.63
2023-01-20T21:31:11.602Z,24.17
2023-01-20T21:33:40.658Z,28.47
2023-01-20T21:36:09.198Z,26.07
2023-01-20T21:38:37.460Z,21.80
2023-01-20T21:41:05.400Z,22.93
2023-01-20T21:43:51.114Z,19.90
2023-01-20T21:46:17.921Z,20.93
2023-01-20T21:49:03.315Z,22.93
2023-01-20T21:51:48.486Z,19.20
2023-01-20T21:54:17.009Z,21.40
2023-01-20T21:56:43.865Z,23.83
2023-01-20T21:59:10.406Z,22.27
2023-01-20T22:01:37.523Z,18.60
2023-01-20T22:04:04.604Z,18.60
2023-01-20T22:06:31.107Z,22.87
2023-01-20T22:09:00.332Z,14.33
2023-01-20T22:11:27.386Z,17.70
2023-01-20T22:13:55.880Z,15.30
2023-01-20T22:16:23.514Z,18.43
2023-01-20T22:18:50.799Z,17.33
2023-01-20T22:21:17.977Z,16.40
2023-01-20T22:23:45.096Z,19.13
2023-01-20T22:26:11.754Z,17.80
2023-01-20T22:28:40.090Z,18.60
2023-01-20T22:31:11.178Z,18.77
2023-01-20T22:33:38.420Z,19.00
2023-01-20T22:36:05.952Z,21.37
2023-01-20T22:38:32.540Z,17.40
2023-01-20T22:41:04.219Z,15.27
2023-01-20T22:43:30.863Z,13.60
2023-01-20T22:45:59.625Z,15.43
2023-01-20T22:48:26.285Z,20.97
2023-01-20T22:50:54.565Z,19.40
2023-01-20T22:53:21.294Z,17.87
2023-01-20T22:56:00.309Z,19.43
2023-01-20T22:58:27.557Z,21.90
2023-01-20T23:00:54.200Z,18.40
2023-01-20T23:03:20.756Z,16.60
2023-01-20T23:05:54.447Z,17.33
2023-01-20T23:08:21.029Z,18.73
2023-01-20T23:10:47.543Z,19.83
2023-01-20T23:13:17.553Z,21.27
2023-01-20T23:15:44.402Z,19.53
2023-01-20T23:18:12.074Z,17.70
2023-01-20T23:20:38.736Z,16.10
2023-01-20T23:23:05.704Z,16.10
2023-01-20T23:25:32.958Z,19.23
2023-01-20T23:27:59.456Z,15.37
2023-01-20T23:30:26.683Z,17.23
2023-01-20T23:32:53.958Z,19.37
2023-01-20T23:35:20.542Z,15.20
2023-01-20T23:37:47.057Z,18.83
2023-01-20T23:40:13.642Z,21.60
2023-01-20T23:42:40.761Z,21.67
2023-01-20T23:45:08.038Z,20.67
2023-01-20T23:47:34.764Z,21.87
2023-01-20T23:50:01.251Z,22.30
2023-01-20T23:52:28.001Z,26.93
2023-01-20T23:54:54.934Z,24.40
2023-01-20T23:57:22.009Z,25.33
2023-01-20T23:59:48.516Z,21.47
